aviador You're here:

OING Decoded Metar

GORGAN in IRAN
Report Time2017-11-24 20:00:00
UTC Time2017-11-24 20:28:12
Flight Rules vfr VFR
Wind180° at 08 kt
W.Decomp.*RWY 13: 5.5 kt HW 5.9 kt RCW
W.Rank180° ranks 15
Current wind is above 180° avg. (6.2)
Visibility9999 m
Phenomena:N/A
Clouds:Scattered 020 Hf
Few CB 025 Hf
Overcast 070 Hf
Expected CloudBase > 800 ft AGL from Temp-Dew spread
Ceiling7,000 ft
Temp10°C (ISA -4)
Dew Point08°C (88% RH)
AAT6.7°C
QNH1019 hPa
Density Alt-23 ft
Elevation509 ft
Report Wrong Elevation
Raw Report
METAR OING 242000Z 18008KT 9999 SCT020 FEW025CB OVC070 10/08 Q1019=

Extra information for OING:More info

Metar Taf Metar & Taf Last 4 Metars F.Rules Stats Wind Profile Meteogram Temp Stats Airport Information Weather charts Add Link Nearby VenuesMetar ALERT Operation Metar Decoded Social comments